createdAt,value
2018-12-10T00:02:11.365Z,3.51
2018-12-10T00:04:41.811Z,3.27
2018-12-10T00:07:12.466Z,3.87
2018-12-10T00:09:43.101Z,3.93
2018-12-10T00:12:13.834Z,4.15
2018-12-10T00:14:44.377Z,4.00
2018-12-10T00:17:16.021Z,3.87
2018-12-10T00:19:46.664Z,4.13
2018-12-10T00:22:17.345Z,4.12
2018-12-10T00:24:48.001Z,2.65
2018-12-10T00:27:18.540Z,2.01
2018-12-10T00:29:49.182Z,1.75
2018-12-10T00:32:19.881Z,2.43
2018-12-10T00:34:50.550Z,2.49
2018-12-10T00:37:21.014Z,2.44
2018-12-10T00:39:51.387Z,2.42
2018-12-10T00:42:22.006Z,2.48
2018-12-10T00:44:52.453Z,1.97
2018-12-10T00:47:23.460Z,2.00
2018-12-10T00:49:53.980Z,2.38
2018-12-10T00:52:24.217Z,2.59
2018-12-10T00:54:54.744Z,2.94
2018-12-10T00:57:25.919Z,2.74
2018-12-10T00:59:56.516Z,3.00
2018-12-10T01:02:26.931Z,3.01
2018-12-10T01:04:57.347Z,3.47
2018-12-10T01:07:27.603Z,3.21
2018-12-10T01:09:58.169Z,3.54
2018-12-10T01:12:28.477Z,3.32
2018-12-10T01:14:59.044Z,3.25
2018-12-10T01:17:30.133Z,3.31
2018-12-10T01:20:01.310Z,3.36
2018-12-10T01:22:31.834Z,3.23
2018-12-10T01:25:02.312Z,3.54
2018-12-10T01:27:34.084Z,3.47
2018-12-10T01:30:04.400Z,3.78
2018-12-10T01:32:35.142Z,3.89
2018-12-10T01:35:05.456Z,3.81
2018-12-10T01:37:35.707Z,3.61
2018-12-10T01:40:06.385Z,3.79
2018-12-10T01:42:36.751Z,3.56
2018-12-10T01:45:08.368Z,3.37
2018-12-10T01:47:39.231Z,3.53
2018-12-10T01:50:09.844Z,3.52
2018-12-10T01:52:40.362Z,3.55
2018-12-10T01:55:10.688Z,3.66
2018-12-10T01:57:42.180Z,3.62
2018-12-10T02:00:12.765Z,3.51
2018-12-10T02:02:43.109Z,3.58
2018-12-10T02:05:13.984Z,3.55
2018-12-10T02:07:44.902Z,3.61
2018-12-10T02:10:15.316Z,3.72
2018-12-10T02:12:46.058Z,3.81
2018-12-10T02:15:16.524Z,3.50
2018-12-10T02:17:47.303Z,3.21
2018-12-10T02:20:18.093Z,2.97
2018-12-10T02:22:48.710Z,3.19
2018-12-10T02:25:19.377Z,3.34
2018-12-10T02:27:49.928Z,3.50
2018-12-10T02:30:21.196Z,3.47
2018-12-10T02:32:52.936Z,2.75
2018-12-10T02:35:23.258Z,3.19
2018-12-10T02:37:53.670Z,3.41
2018-12-10T02:40:25.000Z,3.69
2018-12-10T02:42:55.894Z,3.51
2018-12-10T02:45:26.472Z,3.62
2018-12-10T02:47:57.892Z,3.71
2018-12-10T02:50:28.760Z,3.59
2018-12-10T02:53:00.271Z,3.68
2018-12-10T02:55:30.750Z,3.31
2018-12-10T02:58:02.209Z,3.36
2018-12-10T03:00:33.230Z,3.37
2018-12-10T03:03:04.260Z,2.38
2018-12-10T03:05:34.963Z,2.21
2018-12-10T03:08:06.495Z,2.35
2018-12-10T03:10:36.876Z,2.08
2018-12-10T03:13:07.756Z,1.75
2018-12-10T03:15:38.215Z,1.26
2018-12-10T03:18:09.427Z,1.53
2018-12-10T03:20:40.429Z,1.23
2018-12-10T03:23:11.147Z,1.10
2018-12-10T03:25:41.754Z,1.50
2018-12-10T03:28:13.720Z,1.56
2018-12-10T03:30:44.230Z,1.53
2018-12-10T03:33:15.593Z,1.88
2018-12-10T03:35:46.735Z,1.96
2018-12-10T03:38:17.240Z,1.77
2018-12-10T03:40:48.225Z,1.65
2018-12-10T03:43:19.133Z,1.72
2018-12-10T03:45:49.986Z,1.76
2018-12-10T03:48:21.524Z,1.66
2018-12-10T03:50:52.371Z,1.63
2018-12-10T03:53:23.510Z,1.63
2018-12-10T03:55:54.453Z,1.72
2018-12-10T03:58:26.172Z,1.93
2018-12-10T04:00:56.964Z,1.77
2018-12-10T04:03:27.576Z,1.43
2018-12-10T04:05:58.192Z,1.61
2018-12-10T04:08:29.935Z,1.65
2018-12-10T04:11:00.802Z,1.72
2018-12-10T04:13:31.434Z,1.67
2018-12-10T04:16:02.044Z,1.79
2018-12-10T04:18:34.194Z,1.85
2018-12-10T04:21:04.811Z,1.88
2018-12-10T04:23:35.753Z,1.49
2018-12-10T04:26:06.112Z,1.58
2018-12-10T04:28:38.140Z,1.76
2018-12-10T04:31:08.607Z,1.67
2018-12-10T04:33:38.978Z,1.60
2018-12-10T04:36:09.999Z,1.61
2018-12-10T04:38:40.660Z,1.66
2018-12-10T04:41:11.518Z,1.81
2018-12-10T04:43:42.735Z,2.13
2018-12-10T04:46:13.689Z,1.67
2018-12-10T04:48:44.474Z,1.50
2018-12-10T04:51:14.835Z,0.94
2018-12-10T04:53:45.640Z,0.53
2018-12-10T04:56:16.841Z,0.50
2018-12-10T04:58:48.534Z,0.65
2018-12-10T05:01:18.848Z,0.74
2018-12-10T05:03:49.837Z,0.88
2018-12-10T05:06:20.606Z,0.80
2018-12-10T05:08:51.624Z,0.30
2018-12-10T05:11:22.871Z,-0.23
2018-12-10T05:13:53.267Z,-0.11
2018-12-10T05:16:23.831Z,0.43
2018-12-10T05:18:55.482Z,0.53
2018-12-10T05:21:26.741Z,1.04
2018-12-10T05:23:57.343Z,1.43
2018-12-10T05:26:28.315Z,1.44
2018-12-10T05:28:59.636Z,1.51
2018-12-10T05:31:30.540Z,1.46
2018-12-10T05:34:01.156Z,1.65
2018-12-10T05:36:31.682Z,1.73
2018-12-10T05:39:02.150Z,2.08
2018-12-10T05:41:33.002Z,2.13
2018-12-10T05:44:04.105Z,1.87
2018-12-10T05:46:35.497Z,1.89
2018-12-10T05:49:21.605Z,1.98
2018-12-10T05:51:51.898Z,2.08
2018-12-10T05:54:22.151Z,2.25
2018-12-10T05:56:53.708Z,2.45
2018-12-10T05:59:24.031Z,2.49
2018-12-10T06:01:54.479Z,2.45
2018-12-10T06:04:24.514Z,2.76
2018-12-10T06:06:55.053Z,2.48
2018-12-10T06:09:25.311Z,2.58
2018-12-10T06:11:55.623Z,2.63
2018-12-10T06:14:26.081Z,2.41
2018-12-10T06:16:57.065Z,2.55
2018-12-10T06:19:27.356Z,2.87
2018-12-10T06:21:58.065Z,2.90
2018-12-10T06:24:28.068Z,2.92
2018-12-10T06:26:59.203Z,2.74
2018-12-10T06:29:29.789Z,2.50
2018-12-10T06:32:00.386Z,2.96
2018-12-10T06:34:30.438Z,2.80
2018-12-10T06:37:01.082Z,2.43
2018-12-10T06:39:31.109Z,2.44
2018-12-10T06:42:01.394Z,2.42
2018-12-10T06:44:31.701Z,2.36
2018-12-10T06:47:02.716Z,2.00
2018-12-10T06:49:33.348Z,2.07
2018-12-10T06:52:03.489Z,2.28
2018-12-10T06:54:33.585Z,2.40
2018-12-10T06:57:04.481Z,2.54
2018-12-10T06:59:34.943Z,2.67
2018-12-10T07:02:05.380Z,2.92
2018-12-10T07:04:35.640Z,3.07
2018-12-10T07:07:06.817Z,2.84
2018-12-10T07:09:37.081Z,2.56
2018-12-10T07:12:07.499Z,2.84
2018-12-10T07:14:37.961Z,3.06
2018-12-10T07:17:09.132Z,3.00
2018-12-10T07:19:39.359Z,3.03
2018-12-10T07:22:09.671Z,3.16
2018-12-10T07:24:39.647Z,3.19
2018-12-10T07:27:10.640Z,3.19
2018-12-10T07:29:40.802Z,3.21
2018-12-10T07:32:11.114Z,2.97
2018-12-10T07:34:41.498Z,3.17
2018-12-10T07:37:12.159Z,3.44
2018-12-10T07:39:42.983Z,3.42
2018-12-10T07:42:13.192Z,3.24
2018-12-10T07:44:43.527Z,2.92
2018-12-10T07:47:14.289Z,3.09
2018-12-10T07:49:44.826Z,2.57
2018-12-10T07:52:15.164Z,2.90
2018-12-10T07:54:45.672Z,2.87
2018-12-10T07:57:16.263Z,3.14
2018-12-10T07:59:46.392Z,3.00
2018-12-10T08:02:16.488Z,2.88
2018-12-10T08:04:46.823Z,3.07
2018-12-10T08:07:17.675Z,3.04
2018-12-10T08:09:47.800Z,2.96
2018-12-10T08:12:18.156Z,3.58
2018-12-10T08:14:48.882Z,3.47
2018-12-10T08:17:20.150Z,3.54
2018-12-10T08:19:50.259Z,3.52
2018-12-10T08:22:20.771Z,3.92
2018-12-10T08:24:51.099Z,4.04
2018-12-10T08:27:21.840Z,3.63
2018-12-10T08:29:52.363Z,3.84
2018-12-10T08:32:22.659Z,3.62
2018-12-10T08:34:53.724Z,3.11
2018-12-10T08:37:24.238Z,3.34
2018-12-10T08:39:54.534Z,3.24
2018-12-10T08:42:25.113Z,3.64
2018-12-10T08:44:55.608Z,3.79
2018-12-10T08:47:27.390Z,3.99
2018-12-10T08:49:57.972Z,3.88
2018-12-10T08:52:28.836Z,4.34
2018-12-10T08:54:59.544Z,4.78
2018-12-10T08:57:30.183Z,5.02
2018-12-10T09:00:00.882Z,5.21
2018-12-10T09:02:31.310Z,5.53
2018-12-10T09:05:01.793Z,5.40
2018-12-10T09:07:32.786Z,5.62
2018-12-10T09:10:03.023Z,5.46
2018-12-10T09:12:33.668Z,5.37
2018-12-10T09:15:04.274Z,5.39
2018-12-10T09:17:35.499Z,5.36
2018-12-10T09:20:06.244Z,5.38
2018-12-10T09:22:37.434Z,5.38
2018-12-10T09:25:08.296Z,5.44
2018-12-10T09:27:39.179Z,5.38
2018-12-10T09:30:12.519Z,5.51
2018-12-10T09:32:43.011Z,5.54
2018-12-10T09:35:13.574Z,5.62
2018-12-10T09:37:44.743Z,5.60
2018-12-10T09:40:14.995Z,5.66
2018-12-10T09:42:45.557Z,5.75
2018-12-10T09:45:15.955Z,5.83
2018-12-10T09:47:47.957Z,5.92
2018-12-10T09:50:18.550Z,5.70
2018-12-10T09:52:49.184Z,5.70
2018-12-10T09:55:19.938Z,5.73
2018-12-10T09:57:51.096Z,5.66
2018-12-10T10:00:21.576Z,5.67
2018-12-10T10:02:52.094Z,5.83
2018-12-10T10:05:22.406Z,5.85
2018-12-10T10:07:54.050Z,5.73
2018-12-10T10:10:24.648Z,5.55
2018-12-10T10:12:55.250Z,5.53
2018-12-10T10:15:25.879Z,5.85
2018-12-10T10:17:58.830Z,5.82
2018-12-10T10:20:29.240Z,5.76
2018-12-10T10:22:59.714Z,5.94
2018-12-10T10:25:30.298Z,5.74
2018-12-10T10:28:01.612Z,5.94
2018-12-10T10:30:32.243Z,6.19
2018-12-10T10:33:02.667Z,6.03
2018-12-10T10:35:34.142Z,6.02
2018-12-10T10:38:05.877Z,5.59
2018-12-10T10:40:36.687Z,6.18
2018-12-10T10:43:07.194Z,6.13
2018-12-10T10:45:38.816Z,6.19
2018-12-10T10:48:10.768Z,6.23
2018-12-10T10:50:40.926Z,6.34
2018-12-10T10:53:11.100Z,6.30
2018-12-10T10:55:42.169Z,6.36
2018-12-10T10:58:13.912Z,6.47
2018-12-10T11:00:49.690Z,6.60
2018-12-10T11:03:25.339Z,6.54
2018-12-10T11:05:55.922Z,6.33
2018-12-10T11:08:27.143Z,6.20
2018-12-10T11:10:57.953Z,6.00
2018-12-10T11:13:28.484Z,6.26
2018-12-10T11:15:59.027Z,6.42
2018-12-10T11:18:30.967Z,6.17
2018-12-10T11:21:01.592Z,5.78
2018-12-10T11:23:32.372Z,6.09
2018-12-10T11:26:03.267Z,5.69
2018-12-10T11:28:34.073Z,6.11
2018-12-10T11:31:04.755Z,6.66
2018-12-10T11:33:35.975Z,6.74
2018-12-10T11:36:07.032Z,7.01
2018-12-10T11:38:37.778Z,6.97
2018-12-10T11:41:08.336Z,7.22
2018-12-10T11:43:39.282Z,7.33
2018-12-10T11:46:10.759Z,6.91
2018-12-10T11:48:41.947Z,6.95
2018-12-10T11:51:12.482Z,7.28
2018-12-10T11:53:42.968Z,6.70
2018-12-10T11:56:14.087Z,6.99
2018-12-10T11:58:44.884Z,6.68
2018-12-10T12:01:15.623Z,6.68
2018-12-10T12:03:47.113Z,7.14
2018-12-10T12:06:17.939Z,7.44
2018-12-10T12:08:48.740Z,7.38
2018-12-10T12:11:20.214Z,6.87
2018-12-10T12:13:51.335Z,6.75
2018-12-10T12:16:22.120Z,6.73
2018-12-10T12:18:53.636Z,6.53
2018-12-10T12:21:24.559Z,6.65
2018-12-10T12:23:56.136Z,6.65
2018-12-10T12:26:27.155Z,6.69
2018-12-10T12:28:58.321Z,6.45
2018-12-10T12:31:29.163Z,6.79
2018-12-10T12:34:00.281Z,6.74
2018-12-10T12:36:30.803Z,6.71
2018-12-10T12:39:02.320Z,5.33
2018-12-10T12:41:32.945Z,7.01
2018-12-10T12:44:03.215Z,7.07
2018-12-10T12:46:33.982Z,7.17
2018-12-10T12:49:05.540Z,7.26
2018-12-10T12:51:36.577Z,7.30
2018-12-10T12:54:07.105Z,7.40
2018-12-10T12:56:37.785Z,7.89
2018-12-10T12:59:08.990Z,8.08
2018-12-10T13:01:39.796Z,8.30
2018-12-10T13:04:10.427Z,8.21
2018-12-10T13:06:41.023Z,8.16
2018-12-10T13:09:11.783Z,7.58
2018-12-10T13:11:42.463Z,7.78
2018-12-10T13:14:13.203Z,8.17
2018-12-10T13:16:49.394Z,8.47
2018-12-10T13:19:16.748Z,8.69
2018-12-10T13:21:47.949Z,8.84
2018-12-10T13:24:18.522Z,8.96
2018-12-10T13:26:48.984Z,9.01
2018-12-10T13:29:20.546Z,9.04
2018-12-10T13:31:51.460Z,8.99
2018-12-10T13:34:22.347Z,8.75
2018-12-10T13:36:54.195Z,8.30
2018-12-10T13:39:26.219Z,8.24
2018-12-10T13:41:56.637Z,8.32
2018-12-10T13:44:27.684Z,8.37
2018-12-10T13:46:58.305Z,8.40
2018-12-10T13:49:29.603Z,8.40
2018-12-10T13:52:00.522Z,7.90
2018-12-10T13:54:31.532Z,7.42
2018-12-10T13:57:02.345Z,7.44
2018-12-10T13:59:33.091Z,7.18
2018-12-10T14:02:04.071Z,7.31
2018-12-10T14:04:41.902Z,7.14
2018-12-10T14:07:12.696Z,7.45
2018-12-10T14:09:44.319Z,7.08
2018-12-10T14:12:15.608Z,7.58
2018-12-10T14:14:46.529Z,7.47
2018-12-10T14:17:17.653Z,7.50
2018-12-10T14:19:48.206Z,7.84
2018-12-10T14:22:19.200Z,7.98
2018-12-10T14:24:50.142Z,8.03
2018-12-10T14:27:20.931Z,8.09
2018-12-10T14:29:52.112Z,8.07
2018-12-10T14:32:23.065Z,8.16
2018-12-10T14:34:53.415Z,8.05
2018-12-10T14:37:24.180Z,7.90
2018-12-10T14:39:55.160Z,7.64
2018-12-10T14:42:26.328Z,7.50
2018-12-10T14:44:57.110Z,7.36
2018-12-10T14:47:27.787Z,7.42
2018-12-10T14:49:59.259Z,7.08
2018-12-10T14:52:30.285Z,7.03
2018-12-10T14:55:01.465Z,6.54
2018-12-10T14:57:32.403Z,6.74
2018-12-10T15:00:04.453Z,6.89
2018-12-10T15:02:35.058Z,6.49
2018-12-10T15:05:06.142Z,6.31
2018-12-10T15:07:36.825Z,5.97
2018-12-10T15:10:09.047Z,5.73
2018-12-10T15:12:39.584Z,5.92
2018-12-10T15:15:11.295Z,5.98
2018-12-10T15:17:42.216Z,5.94
2018-12-10T15:20:14.929Z,6.36
2018-12-10T15:22:45.689Z,5.99
2018-12-10T15:25:16.443Z,5.99
2018-12-10T15:27:47.333Z,6.40
2018-12-10T15:30:18.186Z,6.20
2018-12-10T15:32:48.883Z,5.95
2018-12-10T15:35:20.314Z,6.27
2018-12-10T15:37:51.328Z,6.55
2018-12-10T15:40:23.052Z,6.71
2018-12-10T15:42:53.898Z,6.88
2018-12-10T15:45:24.251Z,6.96
2018-12-10T15:47:55.141Z,7.04
2018-12-10T15:50:26.347Z,6.92
2018-12-10T15:52:58.252Z,6.85
2018-12-10T15:55:28.771Z,6.67
2018-12-10T15:57:59.389Z,6.59
2018-12-10T16:00:31.156Z,6.27
2018-12-10T16:03:01.812Z,6.23
2018-12-10T16:05:32.331Z,6.03
2018-12-10T16:08:02.921Z,5.83
2018-12-10T16:10:34.613Z,5.74
2018-12-10T16:13:05.751Z,5.27
2018-12-10T16:15:36.575Z,5.28
2018-12-10T16:18:07.121Z,5.36
2018-12-10T16:20:39.019Z,5.23
2018-12-10T16:23:10.047Z,5.14
2018-12-10T16:25:40.761Z,5.01
2018-12-10T16:28:10.812Z,5.43
2018-12-10T16:30:43.663Z,5.60
2018-12-10T16:33:14.959Z,5.26
2018-12-10T16:35:46.965Z,5.55
2018-12-10T16:38:17.697Z,5.83
2018-12-10T16:40:49.705Z,6.09
2018-12-10T16:43:20.138Z,6.13
2018-12-10T16:45:51.179Z,6.27
2018-12-10T16:48:21.867Z,6.40
2018-12-10T16:50:53.249Z,6.54
2018-12-10T16:53:24.257Z,6.48
2018-12-10T16:55:54.987Z,6.06
2018-12-10T16:58:25.308Z,6.14
2018-12-10T17:00:57.039Z,6.34
2018-12-10T17:03:28.403Z,6.43
2018-12-10T17:05:58.920Z,6.14
2018-12-10T17:08:29.649Z,6.23
2018-12-10T17:11:01.195Z,6.14
2018-12-10T17:13:31.856Z,6.33
2018-12-10T17:16:03.003Z,6.00
2018-12-10T17:18:33.682Z,5.54
2018-12-10T17:21:05.823Z,5.74
2018-12-10T17:23:36.580Z,5.38
2018-12-10T17:26:08.314Z,5.62
2018-12-10T17:28:38.959Z,5.58
2018-12-10T17:31:10.307Z,5.41
2018-12-10T17:33:40.737Z,5.52
2018-12-10T17:36:11.279Z,5.17
2018-12-10T17:38:41.835Z,5.07
2018-12-10T17:41:13.531Z,4.79
2018-12-10T17:43:44.139Z,4.85
2018-12-10T17:46:15.045Z,4.94
2018-12-10T17:48:45.345Z,5.41
2018-12-10T17:51:16.304Z,5.15
2018-12-10T17:53:47.212Z,5.41
2018-12-10T17:56:18.138Z,5.71
2018-12-10T17:58:48.548Z,5.47
2018-12-10T18:01:19.488Z,5.79
2018-12-10T18:03:50.057Z,5.96
2018-12-10T18:06:20.675Z,5.84
2018-12-10T18:08:51.128Z,5.85
2018-12-10T18:11:21.916Z,5.80
2018-12-10T18:13:52.293Z,6.01
2018-12-10T18:16:22.661Z,5.75
2018-12-10T18:18:53.172Z,5.77
2018-12-10T18:21:25.174Z,5.76
2018-12-10T18:23:55.835Z,6.07
2018-12-10T18:26:26.665Z,6.17
2018-12-10T18:28:57.207Z,6.50
2018-12-10T18:31:28.375Z,6.54
2018-12-10T18:33:59.510Z,6.47
2018-12-10T18:36:30.239Z,6.29
2018-12-10T18:39:00.804Z,6.25
2018-12-10T18:41:31.992Z,6.33
2018-12-10T18:44:02.487Z,6.38
2018-12-10T18:46:32.982Z,6.24
2018-12-10T18:49:03.370Z,6.35
2018-12-10T18:51:34.470Z,6.20
2018-12-10T18:54:04.947Z,6.40
2018-12-10T18:56:35.590Z,6.45
2018-12-10T18:59:05.976Z,6.20
2018-12-10T19:01:37.336Z,6.27
2018-12-10T19:04:08.102Z,6.33
2018-12-10T19:06:38.719Z,5.58
2018-12-10T19:09:09.722Z,5.42
2018-12-10T19:11:40.595Z,5.45
2018-12-10T19:14:11.099Z,5.32
2018-12-10T19:16:41.324Z,5.34
2018-12-10T19:19:11.646Z,5.29
2018-12-10T19:21:43.131Z,5.58
2018-12-10T19:24:13.510Z,5.59
2018-12-10T19:26:44.107Z,5.69
2018-12-10T19:29:14.613Z,5.71
2018-12-10T19:31:46.081Z,5.52
2018-12-10T19:34:16.788Z,5.82
2018-12-10T19:36:47.324Z,6.08
2018-12-10T19:39:17.854Z,6.07
2018-12-10T19:41:48.626Z,6.12
2018-12-10T19:44:19.100Z,6.00
2018-12-10T19:46:49.948Z,5.77
2018-12-10T19:49:20.600Z,5.42
2018-12-10T19:51:52.630Z,5.47
2018-12-10T19:54:23.034Z,5.64
2018-12-10T19:56:53.561Z,5.56
2018-12-10T19:59:24.092Z,5.35
2018-12-10T20:01:54.952Z,5.21
2018-12-10T20:04:25.738Z,4.88
2018-12-10T20:07:10.665Z,5.01
2018-12-10T20:09:40.849Z,5.06
2018-12-10T20:12:11.606Z,5.19
2018-12-10T20:14:41.901Z,4.97
2018-12-10T20:17:12.264Z,4.90
2018-12-10T20:19:42.875Z,5.14
2018-12-10T20:22:13.795Z,4.98
2018-12-10T20:24:44.140Z,4.78
2018-12-10T20:27:15.966Z,4.72
2018-12-10T20:29:46.444Z,4.71
2018-12-10T20:32:17.180Z,4.85
2018-12-10T20:34:48.101Z,4.84
2018-12-10T20:37:18.966Z,4.60
2018-12-10T20:39:49.580Z,4.72
2018-12-10T20:42:20.129Z,4.63
2018-12-10T20:44:51.028Z,4.33
2018-12-10T20:47:21.653Z,4.68
2018-12-10T20:49:52.091Z,4.76
2018-12-10T20:52:23.891Z,4.76
2018-12-10T20:54:54.511Z,4.71
2018-12-10T20:57:25.241Z,4.70
2018-12-10T20:59:55.773Z,4.70
2018-12-10T21:02:29.199Z,4.32
2018-12-10T21:04:58.943Z,3.79
2018-12-10T21:07:29.676Z,3.96
2018-12-10T21:10:00.290Z,3.59
2018-12-10T21:12:31.126Z,3.47
2018-12-10T21:15:01.700Z,3.18
2018-12-10T21:17:32.441Z,3.05
2018-12-10T21:20:02.928Z,2.92
2018-12-10T21:22:33.381Z,3.39
2018-12-10T21:25:04.175Z,3.68
2018-12-10T21:27:34.922Z,4.08
2018-12-10T21:30:05.763Z,3.42
2018-12-10T21:32:37.361Z,3.08
2018-12-10T21:35:07.934Z,3.55
2018-12-10T21:37:38.273Z,3.83
2018-12-10T21:40:08.698Z,3.77
2018-12-10T21:42:40.056Z,3.82
2018-12-10T21:45:10.965Z,3.54
2018-12-10T21:47:41.060Z,3.62
2018-12-10T21:50:11.398Z,3.96
2018-12-10T21:52:42.147Z,4.09
2018-12-10T21:55:16.899Z,4.13
2018-12-10T21:57:45.697Z,4.03
2018-12-10T22:00:16.525Z,3.48
2018-12-10T22:02:48.133Z,3.91
2018-12-10T22:05:18.840Z,3.84
2018-12-10T22:07:49.574Z,3.55
2018-12-10T22:10:20.201Z,3.88
2018-12-10T22:12:51.210Z,3.91
2018-12-10T22:15:21.743Z,3.97
2018-12-10T22:17:52.293Z,4.29
2018-12-10T22:20:22.880Z,4.41
2018-12-10T22:22:54.403Z,4.28
2018-12-10T22:25:24.870Z,3.68
2018-12-10T22:27:55.432Z,4.02
2018-12-10T22:30:26.645Z,4.11
2018-12-10T22:32:58.394Z,4.35
2018-12-10T22:35:30.052Z,4.40
2018-12-10T22:38:00.703Z,3.92
2018-12-10T22:40:31.584Z,4.33
2018-12-10T22:43:03.201Z,4.11
2018-12-10T22:45:34.360Z,3.97
2018-12-10T22:48:05.785Z,3.89
2018-12-10T22:50:36.394Z,3.88
2018-12-10T22:53:07.294Z,3.61
2018-12-10T22:55:38.201Z,3.55
2018-12-10T22:58:08.643Z,3.81
2018-12-10T23:00:47.768Z,4.22
2018-12-10T23:03:18.687Z,4.40
2018-12-10T23:05:51.187Z,4.53
2018-12-10T23:08:22.120Z,2.82
2018-12-10T23:10:52.534Z,4.62
2018-12-10T23:13:23.656Z,4.35
2018-12-10T23:15:55.010Z,4.25
2018-12-10T23:18:25.336Z,4.38
2018-12-10T23:20:55.932Z,4.21
2018-12-10T23:23:27.588Z,4.43
2018-12-10T23:25:58.514Z,4.38
2018-12-10T23:28:29.339Z,4.49
2018-12-10T23:31:00.281Z,4.45
2018-12-10T23:33:32.590Z,4.38
2018-12-10T23:36:03.426Z,4.40
2018-12-10T23:38:34.073Z,4.42
2018-12-10T23:41:04.849Z,4.43
2018-12-10T23:43:35.836Z,4.48
2018-12-10T23:46:06.623Z,4.04
2018-12-10T23:48:37.240Z,3.02
2018-12-10T23:51:08.696Z,3.69
2018-12-10T23:53:39.454Z,3.89
2018-12-10T23:56:10.141Z,3.97
2018-12-10T23:58:40.776Z,3.05
